sensor_id;sensor_type;location;lat;lon;timestamp;pressure;altitude;pressure_sealevel;temperature
29701;BMP280;57917;51.380;-0.176;2023-10-31T00:02:20;99496.19;;;9.23
29701;BMP280;57917;51.380;-0.176;2023-10-31T00:08:26;99484.97;;;9.18
29701;BMP280;57917;51.380;-0.176;2023-10-31T00:14:25;99491.03;;;9.18
29701;BMP280;57917;51.380;-0.176;2023-10-31T00:21:00;99501.09;;;9.16
29701;BMP280;57917;51.380;-0.176;2023-10-31T00:26:56;99506.88;;;9.18
29701;BMP280;57917;51.380;-0.176;2023-10-31T00:45:39;99491.72;;;9.10
29701;BMP280;57917;51.380;-0.176;2023-10-31T00:51:26;99497.44;;;9.12
29701;BMP280;57917;51.380;-0.176;2023-10-31T00:57:13;99503.31;;;9.09
29701;BMP280;57917;51.380;-0.176;2023-10-31T01:03:00;99498.53;;;8.98
29701;BMP280;57917;51.380;-0.176;2023-10-31T01:08:47;99500.78;;;9.04
29701;BMP280;57917;51.380;-0.176;2023-10-31T01:14:34;99497.34;;;9.04
29701;BMP280;57917;51.380;-0.176;2023-10-31T01:20:24;99495.19;;;8.92
29701;BMP280;57917;51.380;-0.176;2023-10-31T01:26:12;99507.78;;;8.95
29701;BMP280;57917;51.380;-0.176;2023-10-31T01:31:59;99518.94;;;8.92
29701;BMP280;57917;51.380;-0.176;2023-10-31T01:37:52;99506.31;;;8.89
29701;BMP280;57917;51.380;-0.176;2023-10-31T01:43:39;99510.69;;;8.80
29701;BMP280;57917;51.380;-0.176;2023-10-31T01:49:28;99515.28;;;8.88
29701;BMP280;57917;51.380;-0.176;2023-10-31T01:55:16;99518.31;;;8.82
29701;BMP280;57917;51.380;-0.176;2023-10-31T02:01:04;99522.03;;;8.81
29701;BMP280;57917;51.380;-0.176;2023-10-31T02:06:52;99524.72;;;8.75
29701;BMP280;57917;51.380;-0.176;2023-10-31T02:12:40;99514.03;;;8.67
29701;BMP280;57917;51.380;-0.176;2023-10-31T02:18:29;99512.47;;;8.66
29701;BMP280;57917;51.380;-0.176;2023-10-31T02:24:16;99519.09;;;8.82
29701;BMP280;57917;51.380;-0.176;2023-10-31T02:30:04;99518.34;;;8.95
29701;BMP280;57917;51.380;-0.176;2023-10-31T02:35:51;99515.78;;;8.90
29701;BMP280;57917;51.380;-0.176;2023-10-31T02:41:37;99521.41;;;9.02
29701;BMP280;57917;51.380;-0.176;2023-10-31T02:47:24;99513.28;;;9.12
29701;BMP280;57917;51.380;-0.176;2023-10-31T02:53:11;99532.06;;;9.11
29701;BMP280;57917;51.380;-0.176;2023-10-31T02:58:58;99522.72;;;9.18
29701;BMP280;57917;51.380;-0.176;2023-10-31T03:04:45;99526.91;;;9.19
29701;BMP280;57917;51.380;-0.176;2023-10-31T03:10:33;99535.78;;;9.23
29701;BMP280;57917;51.380;-0.176;2023-10-31T03:16:19;99526.75;;;9.29
29701;BMP280;57917;51.380;-0.176;2023-10-31T03:22:07;99526.81;;;9.24
29701;BMP280;57917;51.380;-0.176;2023-10-31T03:27:54;99532.13;;;9.51
29701;BMP280;57917;51.380;-0.176;2023-10-31T03:33:41;99534.25;;;9.63
29701;BMP280;57917;51.380;-0.176;2023-10-31T03:39:28;99540.13;;;9.73
29701;BMP280;57917;51.380;-0.176;2023-10-31T03:45:16;99545.19;;;9.83
29701;BMP280;57917;51.380;-0.176;2023-10-31T03:51:03;99546.22;;;9.87
29701;BMP280;57917;51.380;-0.176;2023-10-31T03:56:52;99546.06;;;9.92
29701;BMP280;57917;51.380;-0.176;2023-10-31T04:02:40;99543.75;;;9.77
29701;BMP280;57917;51.380;-0.176;2023-10-31T04:08:27;99543.28;;;9.89
29701;BMP280;57917;51.380;-0.176;2023-10-31T04:14:18;99549.41;;;9.84
29701;BMP280;57917;51.380;-0.176;2023-10-31T04:20:05;99549.69;;;9.96
29701;BMP280;57917;51.380;-0.176;2023-10-31T04:25:52;99544.50;;;10.05
29701;BMP280;57917;51.380;-0.176;2023-10-31T04:31:39;99551.94;;;10.17
29701;BMP280;57917;51.380;-0.176;2023-10-31T04:37:30;99568.06;;;10.29
29701;BMP280;57917;51.380;-0.176;2023-10-31T04:43:20;99568.16;;;10.37
29701;BMP280;57917;51.380;-0.176;2023-10-31T04:49:07;99572.34;;;10.38
29701;BMP280;57917;51.380;-0.176;2023-10-31T04:54:54;99582.22;;;10.46
29701;BMP280;57917;51.380;-0.176;2023-10-31T05:00:41;99581.16;;;10.47
29701;BMP280;57917;51.380;-0.176;2023-10-31T05:06:28;99590.34;;;10.50
29701;BMP280;57917;51.380;-0.176;2023-10-31T05:12:14;99585.03;;;10.50
29701;BMP280;57917;51.380;-0.176;2023-10-31T05:18:01;99595.81;;;10.53
29701;BMP280;57917;51.380;-0.176;2023-10-31T05:23:48;99583.88;;;10.56
29701;BMP280;57917;51.380;-0.176;2023-10-31T05:29:35;99589.56;;;10.49
29701;BMP280;57917;51.380;-0.176;2023-10-31T05:35:24;99598.28;;;10.50
29701;BMP280;57917;51.380;-0.176;2023-10-31T05:41:12;99594.38;;;10.47
29701;BMP280;57917;51.380;-0.176;2023-10-31T05:47:00;99593.41;;;10.43
29701;BMP280;57917;51.380;-0.176;2023-10-31T05:52:48;99592.22;;;10.36
29701;BMP280;57917;51.380;-0.176;2023-10-31T05:58:40;99599.78;;;10.29
29701;BMP280;57917;51.380;-0.176;2023-10-31T06:04:27;99611.38;;;10.33
29701;BMP280;57917;51.380;-0.176;2023-10-31T06:10:14;99600.16;;;10.36
29701;BMP280;57917;51.380;-0.176;2023-10-31T06:16:01;99592.13;;;10.41
29701;BMP280;57917;51.380;-0.176;2023-10-31T06:21:48;99591.53;;;10.44
29701;BMP280;57917;51.380;-0.176;2023-10-31T06:27:35;99589.16;;;10.56
29701;BMP280;57917;51.380;-0.176;2023-10-31T06:33:21;99588.78;;;10.49
29701;BMP280;57917;51.380;-0.176;2023-10-31T06:39:08;99602.63;;;10.46
29701;BMP280;57917;51.380;-0.176;2023-10-31T06:44:56;99609.63;;;10.50
29701;BMP280;57917;51.380;-0.176;2023-10-31T06:50:42;99626.41;;;10.46
29701;BMP280;57917;51.380;-0.176;2023-10-31T06:56:29;99622.84;;;10.50
29701;BMP280;57917;51.380;-0.176;2023-10-31T07:02:16;99632.84;;;10.53
29701;BMP280;57917;51.380;-0.176;2023-10-31T07:08:04;99637.34;;;10.53
29701;BMP280;57917;51.380;-0.176;2023-10-31T07:13:51;99639.69;;;10.54
29701;BMP280;57917;51.380;-0.176;2023-10-31T07:19:38;99635.94;;;10.69
29701;BMP280;57917;51.380;-0.176;2023-10-31T07:25:25;99656.75;;;10.62
29701;BMP280;57917;51.380;-0.176;2023-10-31T07:31:12;99671.81;;;10.75
29701;BMP280;57917;51.380;-0.176;2023-10-31T07:36:59;99685.31;;;10.87
29701;BMP280;57917;51.380;-0.176;2023-10-31T07:42:46;99687.75;;;10.83
29701;BMP280;57917;51.380;-0.176;2023-10-31T07:48:34;99703.28;;;10.98
29701;BMP280;57917;51.380;-0.176;2023-10-31T07:54:21;99697.56;;;11.05
29701;BMP280;57917;51.380;-0.176;2023-10-31T08:00:11;99704.63;;;11.09
29701;BMP280;57917;51.380;-0.176;2023-10-31T08:05:59;99699.84;;;11.11
29701;BMP280;57917;51.380;-0.176;2023-10-31T08:11:48;99695.97;;;11.17
29701;BMP280;57917;51.380;-0.176;2023-10-31T08:17:36;99707.28;;;11.31
29701;BMP280;57917;51.380;-0.176;2023-10-31T08:23:25;99708.50;;;11.48
29701;BMP280;57917;51.380;-0.176;2023-10-31T08:29:12;99711.06;;;11.61
29701;BMP280;57917;51.380;-0.176;2023-10-31T08:34:59;99708.75;;;11.68
29701;BMP280;57917;51.380;-0.176;2023-10-31T08:40:47;99707.72;;;11.78
29701;BMP280;57917;51.380;-0.176;2023-10-31T08:46:35;99711.31;;;12.29
29701;BMP280;57917;51.380;-0.176;2023-10-31T08:52:22;99711.38;;;12.98
29701;BMP280;57917;51.380;-0.176;2023-10-31T08:58:11;99702.75;;;13.43
29701;BMP280;57917;51.380;-0.176;2023-10-31T09:04:00;99700.78;;;13.69
29701;BMP280;57917;51.380;-0.176;2023-10-31T09:09:50;99705.94;;;14.03
29701;BMP280;57917;51.380;-0.176;2023-10-31T09:15:37;99711.25;;;14.32
29701;BMP280;57917;51.380;-0.176;2023-10-31T09:21:26;99705.63;;;14.55
29701;BMP280;57917;51.380;-0.176;2023-10-31T09:27:14;99703.34;;;14.65
29701;BMP280;57917;51.380;-0.176;2023-10-31T09:33:01;99716.78;;;14.89
29701;BMP280;57917;51.380;-0.176;2023-10-31T09:39:04;99717.00;;;14.96
29701;BMP280;57917;51.380;-0.176;2023-10-31T09:45:44;99710.72;;;15.13
29701;BMP280;57917;51.380;-0.176;2023-10-31T09:51:37;99700.22;;;15.28
29701;BMP280;57917;51.380;-0.176;2023-10-31T09:57:45;99693.59;;;15.46
29701;BMP280;57917;51.380;-0.176;2023-10-31T10:03:46;99700.06;;;15.81
29701;BMP280;57917;51.380;-0.176;2023-10-31T10:09:34;99702.03;;;15.84
29701;BMP280;57917;51.380;-0.176;2023-10-31T10:15:24;99706.47;;;16.16
29701;BMP280;57917;51.380;-0.176;2023-10-31T10:21:23;99705.69;;;16.16
29701;BMP280;57917;51.380;-0.176;2023-10-31T10:27:10;99710.25;;;16.15
29701;BMP280;57917;51.380;-0.176;2023-10-31T10:32:57;99709.06;;;16.01
29701;BMP280;57917;51.380;-0.176;2023-10-31T10:38:52;99717.81;;;16.13
29701;BMP280;57917;51.380;-0.176;2023-10-31T10:44:43;99714.59;;;16.60
29701;BMP280;57917;51.380;-0.176;2023-10-31T10:50:39;99724.34;;;16.80
29701;BMP280;57917;51.380;-0.176;2023-10-31T10:56:30;99718.78;;;16.73
29701;BMP280;57917;51.380;-0.176;2023-10-31T11:02:36;99711.56;;;16.89
29701;BMP280;57917;51.380;-0.176;2023-10-31T11:08:25;99726.72;;;16.69
29701;BMP280;57917;51.380;-0.176;2023-10-31T11:14:13;99729.47;;;16.73
29701;BMP280;57917;51.380;-0.176;2023-10-31T11:20:11;99723.19;;;16.65
29701;BMP280;57917;51.380;-0.176;2023-10-31T11:26:01;99721.44;;;16.73
29701;BMP280;57917;51.380;-0.176;2023-10-31T11:31:48;99727.16;;;16.87
29701;BMP280;57917;51.380;-0.176;2023-10-31T11:37:35;99732.22;;;16.36
29701;BMP280;57917;51.380;-0.176;2023-10-31T11:43:22;99724.94;;;16.21
29701;BMP280;57917;51.380;-0.176;2023-10-31T11:49:10;99729.72;;;16.16
29701;BMP280;57917;51.380;-0.176;2023-10-31T11:54:57;99733.84;;;16.13
29701;BMP280;57917;51.380;-0.176;2023-10-31T12:00:49;99726.34;;;16.31
29701;BMP280;57917;51.380;-0.176;2023-10-31T12:06:39;99724.94;;;16.21
29701;BMP280;57917;51.380;-0.176;2023-10-31T12:12:31;99733.63;;;16.06
29701;BMP280;57917;51.380;-0.176;2023-10-31T12:18:19;99742.72;;;16.05
29701;BMP280;57917;51.380;-0.176;2023-10-31T12:24:14;99749.63;;;15.58
29701;BMP280;57917;51.380;-0.176;2023-10-31T12:30:03;99748.59;;;15.51
29701;BMP280;57917;51.380;-0.176;2023-10-31T12:35:58;99745.41;;;15.57
29701;BMP280;57917;51.380;-0.176;2023-10-31T12:41:53;99733.94;;;15.45
29701;BMP280;57917;51.380;-0.176;2023-10-31T12:47:44;99740.53;;;15.95
29701;BMP280;57917;51.380;-0.176;2023-10-31T12:53:31;99738.28;;;16.21
29701;BMP280;57917;51.380;-0.176;2023-10-31T12:59:21;99737.75;;;15.92
29701;BMP280;57917;51.380;-0.176;2023-10-31T13:05:15;99742.56;;;15.98
29701;BMP280;57917;51.380;-0.176;2023-10-31T13:11:07;99738.75;;;16.23
29701;BMP280;57917;51.380;-0.176;2023-10-31T13:16:58;99749.88;;;16.01
29701;BMP280;57917;51.380;-0.176;2023-10-31T13:22:46;99751.84;;;16.28
29701;BMP280;57917;51.380;-0.176;2023-10-31T13:28:33;99737.53;;;16.09
29701;BMP280;57917;51.380;-0.176;2023-10-31T13:34:21;99751.31;;;16.11
29701;BMP280;57917;51.380;-0.176;2023-10-31T13:40:10;99739.09;;;15.98
29701;BMP280;57917;51.380;-0.176;2023-10-31T13:45:58;99738.31;;;15.97
29701;BMP280;57917;51.380;-0.176;2023-10-31T13:51:47;99754.28;;;16.09
29701;BMP280;57917;51.380;-0.176;2023-10-31T13:57:39;99745.84;;;16.07
29701;BMP280;57917;51.380;-0.176;2023-10-31T14:03:29;99748.06;;;16.05
29701;BMP280;57917;51.380;-0.176;2023-10-31T14:09:16;99754.66;;;15.84
29701;BMP280;57917;51.380;-0.176;2023-10-31T14:15:04;99770.31;;;15.73
29701;BMP280;57917;51.380;-0.176;2023-10-31T14:20:54;99760.66;;;15.93
29701;BMP280;57917;51.380;-0.176;2023-10-31T14:26:41;99753.19;;;16.22
29701;BMP280;57917;51.380;-0.176;2023-10-31T14:32:34;99765.09;;;16.25
29701;BMP280;57917;51.380;-0.176;2023-10-31T14:38:45;99764.88;;;16.06
29701;BMP280;57917;51.380;-0.176;2023-10-31T14:44:32;99761.00;;;16.03
29701;BMP280;57917;51.380;-0.176;2023-10-31T14:50:19;99738.75;;;15.87
29701;BMP280;57917;51.380;-0.176;2023-10-31T14:56:38;99751.84;;;15.80
29701;BMP280;57917;51.380;-0.176;2023-10-31T15:02:51;99771.09;;;15.74
29701;BMP280;57917;51.380;-0.176;2023-10-31T15:09:36;99784.25;;;15.46
29701;BMP280;57917;51.380;-0.176;2023-10-31T15:15:54;99805.59;;;15.46
29701;BMP280;57917;51.380;-0.176;2023-10-31T15:22:07;99805.16;;;15.44
29701;BMP280;57917;51.380;-0.176;2023-10-31T15:28:14;99804.75;;;15.54
29701;BMP280;57917;51.380;-0.176;2023-10-31T15:34:39;99807.03;;;15.44
29701;BMP280;57917;51.380;-0.176;2023-10-31T15:40:33;99799.25;;;15.18
29701;BMP280;57917;51.380;-0.176;2023-10-31T15:46:23;99800.69;;;15.36
29701;BMP280;57917;51.380;-0.176;2023-10-31T15:52:14;99825.44;;;15.04
29701;BMP280;57917;51.380;-0.176;2023-10-31T16:03:59;99830.09;;;15.07
29701;BMP280;57917;51.380;-0.176;2023-10-31T16:09:46;99844.66;;;14.89
29701;BMP280;57917;51.380;-0.176;2023-10-31T16:15:34;99841.06;;;14.85
29701;BMP280;57917;51.380;-0.176;2023-10-31T16:21:24;99832.38;;;14.76
29701;BMP280;57917;51.380;-0.176;2023-10-31T16:27:44;99833.44;;;14.55
29701;BMP280;57917;51.380;-0.176;2023-10-31T16:34:01;99839.56;;;14.55
29701;BMP280;57917;51.380;-0.176;2023-10-31T16:40:02;99856.16;;;14.52
29701;BMP280;57917;51.380;-0.176;2023-10-31T16:46:10;99859.19;;;14.42
29701;BMP280;57917;51.380;-0.176;2023-10-31T16:52:00;99855.75;;;14.41
29701;BMP280;57917;51.380;-0.176;2023-10-31T16:57:48;99855.75;;;14.33
29701;BMP280;57917;51.380;-0.176;2023-10-31T17:03:36;99855.31;;;14.31
29701;BMP280;57917;51.380;-0.176;2023-10-31T17:09:37;99862.66;;;14.34
29701;BMP280;57917;51.380;-0.176;2023-10-31T17:15:24;99857.38;;;14.25
29701;BMP280;57917;51.380;-0.176;2023-10-31T17:21:11;99857.28;;;14.05
29701;BMP280;57917;51.380;-0.176;2023-10-31T17:26:59;99865.75;;;14.07
29701;BMP280;57917;51.380;-0.176;2023-10-31T17:32:46;99873.25;;;14.05
29701;BMP280;57917;51.380;-0.176;2023-10-31T17:39:04;99869.50;;;13.97
29701;BMP280;57917;51.380;-0.176;2023-10-31T17:44:51;99868.41;;;13.98
29701;BMP280;57917;51.380;-0.176;2023-10-31T17:50:38;99868.28;;;13.95
29701;BMP280;57917;51.380;-0.176;2023-10-31T17:56:25;99861.38;;;13.94
29701;BMP280;57917;51.380;-0.176;2023-10-31T18:02:13;99853.84;;;13.96
29701;BMP280;57917;51.380;-0.176;2023-10-31T18:08:01;99856.06;;;13.94
29701;BMP280;57917;51.380;-0.176;2023-10-31T18:13:53;99856.38;;;14.01
29701;BMP280;57917;51.380;-0.176;2023-10-31T18:19:40;99864.00;;;14.02
29701;BMP280;57917;51.380;-0.176;2023-10-31T18:25:28;99854.16;;;14.03
29701;BMP280;57917;51.380;-0.176;2023-10-31T18:31:16;99855.28;;;13.85
29701;BMP280;57917;51.380;-0.176;2023-10-31T18:37:04;99871.41;;;13.97
29701;BMP280;57917;51.380;-0.176;2023-10-31T18:43:03;99869.94;;;14.08
29701;BMP280;57917;51.380;-0.176;2023-10-31T18:48:53;99864.97;;;13.98
29701;BMP280;57917;51.380;-0.176;2023-10-31T18:54:40;99869.34;;;14.02
29701;BMP280;57917;51.380;-0.176;2023-10-31T19:00:30;99865.59;;;14.03
29701;BMP280;57917;51.380;-0.176;2023-10-31T19:06:24;99860.19;;;14.20
29701;BMP280;57917;51.380;-0.176;2023-10-31T19:12:13;99865.28;;;14.05
29701;BMP280;57917;51.380;-0.176;2023-10-31T19:18:03;99859.16;;;13.96
29701;BMP280;57917;51.380;-0.176;2023-10-31T19:23:53;99864.53;;;13.79
29701;BMP280;57917;51.380;-0.176;2023-10-31T19:29:40;99851.41;;;13.74
29701;BMP280;57917;51.380;-0.176;2023-10-31T19:35:27;99838.00;;;13.62
29701;BMP280;57917;51.380;-0.176;2023-10-31T19:41:17;99827.50;;;13.57
29701;BMP280;57917;51.380;-0.176;2023-10-31T20:00:56;99828.75;;;13.59
29701;BMP280;57917;51.380;-0.176;2023-10-31T20:06:51;99825.78;;;13.52
29701;BMP280;57917;51.380;-0.176;2023-10-31T20:13:15;99827.50;;;13.48
29701;BMP280;57917;51.380;-0.176;2023-10-31T20:19:12;99816.75;;;13.45
29701;BMP280;57917;51.380;-0.176;2023-10-31T20:25:04;99811.72;;;13.35
29701;BMP280;57917;51.380;-0.176;2023-10-31T20:31:20;99814.06;;;13.36
29701;BMP280;57917;51.380;-0.176;2023-10-31T20:37:35;99808.44;;;13.29
29701;BMP280;57917;51.380;-0.176;2023-10-31T20:43:55;99816.72;;;13.28
29701;BMP280;57917;51.380;-0.176;2023-10-31T20:49:48;99816.88;;;13.31
29701;BMP280;57917;51.380;-0.176;2023-10-31T20:55:41;99806.56;;;13.21
29701;BMP280;57917;51.380;-0.176;2023-10-31T21:01:35;99804.56;;;13.18
29701;BMP280;57917;51.380;-0.176;2023-10-31T21:08:07;99799.38;;;13.22
29701;BMP280;57917;51.380;-0.176;2023-10-31T21:13:59;99791.41;;;13.22
29701;BMP280;57917;51.380;-0.176;2023-10-31T21:27:43;99783.28;;;13.10
29701;BMP280;57917;51.380;-0.176;2023-10-31T21:33:38;99780.91;;;13.08
29701;BMP280;57917;51.380;-0.176;2023-10-31T21:40:17;99777.50;;;13.16
29701;BMP280;57917;51.380;-0.176;2023-10-31T21:46:37;99792.50;;;13.21
29701;BMP280;57917;51.380;-0.176;2023-10-31T21:52:42;99783.56;;;13.17
29701;BMP280;57917;51.380;-0.176;2023-10-31T21:58:59;99765.16;;;13.12
29701;BMP280;57917;51.380;-0.176;2023-10-31T22:04:51;99747.97;;;13.18
29701;BMP280;57917;51.380;-0.176;2023-10-31T22:11:10;99741.06;;;13.17
29701;BMP280;57917;51.380;-0.176;2023-10-31T22:17:04;99735.94;;;13.12
29701;BMP280;57917;51.380;-0.176;2023-10-31T22:22:52;99737.03;;;13.19
29701;BMP280;57917;51.380;-0.176;2023-10-31T22:28:42;99732.03;;;13.18
29701;BMP280;57917;51.380;-0.176;2023-10-31T22:34:37;99724.03;;;13.09
29701;BMP280;57917;51.380;-0.176;2023-10-31T22:48:46;99724.38;;;12.99
29701;BMP280;57917;51.380;-0.176;2023-10-31T22:54:33;99718.25;;;13.16
29701;BMP280;57917;51.380;-0.176;2023-10-31T23:00:20;99706.66;;;13.29
29701;BMP280;57917;51.380;-0.176;2023-10-31T23:06:08;99700.69;;;13.40
29701;BMP280;57917;51.380;-0.176;2023-10-31T23:11:55;99694.34;;;13.33
29701;BMP280;57917;51.380;-0.176;2023-10-31T23:17:43;99687.28;;;13.28
29701;BMP280;57917;51.380;-0.176;2023-10-31T23:23:30;99670.22;;;13.29
29701;BMP280;57917;51.380;-0.176;2023-10-31T23:29:17;99674.75;;;13.29
29701;BMP280;57917;51.380;-0.176;2023-10-31T23:35:04;99662.78;;;13.14
29701;BMP280;57917;51.380;-0.176;2023-10-31T23:40:51;99660.75;;;13.03
29701;BMP280;57917;51.380;-0.176;2023-10-31T23:46:39;99654.53;;;12.99
29701;BMP280;57917;51.380;-0.176;2023-10-31T23:52:26;99662.03;;;12.79
29701;BMP280;57917;51.380;-0.176;2023-10-31T23:58:57;99649.06;;;12.69
